Mirgab Vi — ZGAO4 — position and weather

sailwx.info

Track history (hours):
 
Tides and Currents Weather Stations Pressure Air Temp Water Temp Dewpoint Dewpoint Depression Visibility Wind Speed Wind Dir Waves Ship Positions

Mirgab Vi

Last reported at 2017-Sep-24 12:07 UTC. Time now 2017-Sep-24 14:15 UTC.
Position N 44°19' E 009°15'.

Length 49 m; draft 2.9 m.

Type: Pleasure craft. MMSI: 319394000.

Date/timePositionNaut miles runAvg speedWind from/ knotsBaromVisibWave heightAir tempDewpointWater temp
2017-Sep-24 12:07N 44°19' E 009°15'1 3.6
2017-Sep-24 11:57N 44°18' E 009°15'  
2017-Sep-20 09:04N 44°20' E 009°13'0 0.0
2017-Sep-20 08:53N 44°20' E 009°13'1 0.3
2017-Sep-20 04:57N 44°19' E 009°14'4 9.0
2017-Sep-20 04:30N 44°16' E 009°10'611.2
2017-Sep-20 04:00N 44°13' E 009°03'611.1
2017-Sep-20 03:30N 44°11' E 008°56'611.1
2017-Sep-20 03:00N 44°08' E 008°49'611.1
2017-Sep-20 02:29N 44°06' E 008°42'511.0
2017-Sep-20 02:00N 44°03' E 008°36'2310.7
2017-Sep-19 23:52N 43°53' E 008°07'510.7
2017-Sep-19 23:23N 43°50' E 008°01'510.7
2017-Sep-19 22:53N 43°48' E 007°54'510.6
2017-Sep-19 22:28N 43°46' E 007°49'2310.9
2017-Sep-19 20:20N 43°36' E 007°20'911.3
2017-Sep-19 19:34N 43°32' E 007°10'111.1
2017-Sep-19 19:30N 43°31' E 007°09'510.4
2017-Sep-19 19:00N 43°30' E 007°02'3 5.1
2017-Sep-19 18:30N 43°32' E 007°02'0 0.0
2017-Sep-19 18:00N 43°32' E 007°02'0 0.0
2017-Sep-19 17:30N 43°32' E 007°02'0 0.0
2017-Sep-19 16:57N 43°32' E 007°02'0 0.0
2017-Sep-19 16:30N 43°32' E 007°02'0 0.0
2017-Sep-19 16:00N 43°32' E 007°02'0 0.0
2017-Sep-19 15:27N 43°32' E 007°02'0 0.0
2017-Sep-19 15:00N 43°32' E 007°02'0 0.0
2017-Sep-19 14:30N 43°32' E 007°02'0 0.0
2017-Sep-19 14:00N 43°32' E 007°02'0 0.0
2017-Sep-19 13:30N 43°32' E 007°02'0 0.0
2017-Sep-19 13:00N 43°32' E 007°02'0 0.0
2017-Sep-19 12:30N 43°32' E 007°02'0 0.0
2017-Sep-19 12:00N 43°32' E 007°02'0 0.0
2017-Sep-19 11:30N 43°32' E 007°02'0 0.0
2017-Sep-19 11:00N 43°32' E 007°02'0 0.0
2017-Sep-19 10:30N 43°32' E 007°02'0 0.0
2017-Sep-19 10:00N 43°32' E 007°02'0 0.0
2017-Sep-19 09:30N 43°32' E 007°02'0 0.0
2017-Sep-19 09:00N 43°32' E 007°02'0 0.0
2017-Sep-19 08:30N 43°32' E 007°02'0 0.0
2017-Sep-19 07:57N 43°32' E 007°02'0 0.0
2017-Sep-19 07:30N 43°32' E 007°02'0 0.0
2017-Sep-19 07:00N 43°32' E 007°02'0 0.0
2017-Sep-19 06:30N 43°32' E 007°02'0 0.0
2017-Sep-19 06:00N 43°32' E 007°02'0 0.0
2017-Sep-19 05:30N 43°32' E 007°02'0 0.0
2017-Sep-19 04:57N 43°32' E 007°02'0 0.0
2017-Sep-19 04:30N 43°32' E 007°02'0 0.0
2017-Sep-19 04:00N 43°32' E 007°02'0 0.0
2017-Sep-19 03:30N 43°32' E 007°02'0 0.0
2017-Sep-19 02:57N 43°32' E 007°02'0 0.0
2017-Sep-19 02:30N 43°32' E 007°02'0 0.0
2017-Sep-19 02:00N 43°32' E 007°02'0 0.0
2017-Sep-19 01:30N 43°32' E 007°02'0 0.0
2017-Sep-19 01:00N 43°32' E 007°02'0 0.0
2017-Sep-19 00:30N 43°32' E 007°02'0 0.0
2017-Sep-19 00:00N 43°32' E 007°02'0 0.0
2017-Sep-18 23:30N 43°32' E 007°02'0 0.0
2017-Sep-18 23:00N 43°32' E 007°02'0 0.0
2017-Sep-18 22:30N 43°32' E 007°02'0 0.0
2017-Sep-18 22:00N 43°32' E 007°02'0 0.0
2017-Sep-18 21:30N 43°32' E 007°02'0 0.0
2017-Sep-18 21:00N 43°32' E 007°02'0 0.0
2017-Sep-18 20:30N 43°32' E 007°02'0 0.0
2017-Sep-18 20:00N 43°32' E 007°02'0 0.0
2017-Sep-18 19:30N 43°32' E 007°02'0 0.0
2017-Sep-18 19:00N 43°32' E 007°02'0 0.0
2017-Sep-18 18:30N 43°32' E 007°02'0 0.0
2017-Sep-18 18:00N 43°32' E 007°02'0 0.0
2017-Sep-18 17:27N 43°32' E 007°02'0 0.0
2017-Sep-18 16:57N 43°32' E 007°02'0 0.0
2017-Sep-18 16:30N 43°32' E 007°02'0 0.0
2017-Sep-18 15:54N 43°32' E 007°02'0 0.0
2017-Sep-18 15:30N 43°32' E 007°02'0 0.0
2017-Sep-18 15:00N 43°32' E 007°02'0 0.0
2017-Sep-18 14:30N 43°32' E 007°02'0 0.4
2017-Sep-18 14:00N 43°33' E 007°02'3 6.3
2017-Sep-18 13:30N 43°30' E 006°60'3 6.8
2017-Sep-18 13:00N 43°27' E 006°57'  
Track history (hours):
 
Tides and Currents Weather Stations Pressure Air Temp Water Temp Dewpoint Dewpoint Depression Visibility Wind Speed Wind Dir Waves Ship Positions

Mirgab Vi

Last reported at 2017-Sep-24 12:07 UTC. Time now 2017-Sep-24 14:15 UTC.
Position N 44°19' E 009°15'.

Length 49 m; draft 2.9 m.

Type: Pleasure craft. MMSI: 319394000.

Date/timePositionNaut miles runAvg speedWind from/ knotsBaromVisibWave heightAir tempDewpointWater temp
2017-Sep-24 12:07N 44°19' E 009°15'1 3.6
2017-Sep-24 11:57N 44°18' E 009°15'  
2017-Sep-20 09:04N 44°20' E 009°13'0 0.0
2017-Sep-20 08:53N 44°20' E 009°13'1 0.3
2017-Sep-20 04:57N 44°19' E 009°14'4 9.0
2017-Sep-20 04:30N 44°16' E 009°10'611.2
2017-Sep-20 04:00N 44°13' E 009°03'611.1
2017-Sep-20 03:30N 44°11' E 008°56'611.1
2017-Sep-20 03:00N 44°08' E 008°49'611.1
2017-Sep-20 02:29N 44°06' E 008°42'511.0
2017-Sep-20 02:00N 44°03' E 008°36'2310.7
2017-Sep-19 23:52N 43°53' E 008°07'510.7
2017-Sep-19 23:23N 43°50' E 008°01'510.7
2017-Sep-19 22:53N 43°48' E 007°54'510.6
2017-Sep-19 22:28N 43°46' E 007°49'2310.9
2017-Sep-19 20:20N 43°36' E 007°20'911.3
2017-Sep-19 19:34N 43°32' E 007°10'111.1
2017-Sep-19 19:30N 43°31' E 007°09'510.4
2017-Sep-19 19:00N 43°30' E 007°02'3 5.1
2017-Sep-19 18:30N 43°32' E 007°02'0 0.0
2017-Sep-19 18:00N 43°32' E 007°02'0 0.0
2017-Sep-19 17:30N 43°32' E 007°02'0 0.0
2017-Sep-19 16:57N 43°32' E 007°02'0 0.0
2017-Sep-19 16:30N 43°32' E 007°02'0 0.0
2017-Sep-19 16:00N 43°32' E 007°02'0 0.0
2017-Sep-19 15:27N 43°32' E 007°02'0 0.0
2017-Sep-19 15:00N 43°32' E 007°02'0 0.0
2017-Sep-19 14:30N 43°32' E 007°02'0 0.0
2017-Sep-19 14:00N 43°32' E 007°02'0 0.0
2017-Sep-19 13:30N 43°32' E 007°02'0 0.0
2017-Sep-19 13:00N 43°32' E 007°02'0 0.0
2017-Sep-19 12:30N 43°32' E 007°02'0 0.0
2017-Sep-19 12:00N 43°32' E 007°02'0 0.0
2017-Sep-19 11:30N 43°32' E 007°02'0 0.0
2017-Sep-19 11:00N 43°32' E 007°02'0 0.0
2017-Sep-19 10:30N 43°32' E 007°02'0 0.0
2017-Sep-19 10:00N 43°32' E 007°02'0 0.0
2017-Sep-19 09:30N 43°32' E 007°02'0 0.0
2017-Sep-19 09:00N 43°32' E 007°02'0 0.0
2017-Sep-19 08:30N 43°32' E 007°02'0 0.0
2017-Sep-19 07:57N 43°32' E 007°02'0 0.0
2017-Sep-19 07:30N 43°32' E 007°02'0 0.0
2017-Sep-19 07:00N 43°32' E 007°02'0 0.0
2017-Sep-19 06:30N 43°32' E 007°02'0 0.0
2017-Sep-19 06:00N 43°32' E 007°02'0 0.0
2017-Sep-19 05:30N 43°32' E 007°02'0 0.0
2017-Sep-19 04:57N 43°32' E 007°02'0 0.0
2017-Sep-19 04:30N 43°32' E 007°02'0 0.0
2017-Sep-19 04:00N 43°32' E 007°02'0 0.0
2017-Sep-19 03:30N 43°32' E 007°02'0 0.0
2017-Sep-19 02:57N 43°32' E 007°02'0 0.0
2017-Sep-19 02:30N 43°32' E 007°02'0 0.0
2017-Sep-19 02:00N 43°32' E 007°02'0 0.0
2017-Sep-19 01:30N 43°32' E 007°02'0 0.0
2017-Sep-19 01:00N 43°32' E 007°02'0 0.0
2017-Sep-19 00:30N 43°32' E 007°02'0 0.0
2017-Sep-19 00:00N 43°32' E 007°02'0 0.0
2017-Sep-18 23:30N 43°32' E 007°02'0 0.0
2017-Sep-18 23:00N 43°32' E 007°02'0 0.0
2017-Sep-18 22:30N 43°32' E 007°02'0 0.0
2017-Sep-18 22:00N 43°32' E 007°02'0 0.0
2017-Sep-18 21:30N 43°32' E 007°02'0 0.0
2017-Sep-18 21:00N 43°32' E 007°02'0 0.0
2017-Sep-18 20:30N 43°32' E 007°02'0 0.0
2017-Sep-18 20:00N 43°32' E 007°02'0 0.0
2017-Sep-18 19:30N 43°32' E 007°02'0 0.0
2017-Sep-18 19:00N 43°32' E 007°02'0 0.0
2017-Sep-18 18:30N 43°32' E 007°02'0 0.0
2017-Sep-18 18:00N 43°32' E 007°02'0 0.0
2017-Sep-18 17:27N 43°32' E 007°02'0 0.0
2017-Sep-18 16:57N 43°32' E 007°02'0 0.0
2017-Sep-18 16:30N 43°32' E 007°02'0 0.0
2017-Sep-18 15:54N 43°32' E 007°02'0 0.0
2017-Sep-18 15:30N 43°32' E 007°02'0 0.0
2017-Sep-18 15:00N 43°32' E 007°02'0 0.0
2017-Sep-18 14:30N 43°32' E 007°02'0 0.4
2017-Sep-18 14:00N 43°33' E 007°02'3 6.3
2017-Sep-18 13:30N 43°30' E 006°60'3 6.8
2017-Sep-18 13:00N 43°27' E 006°57'  

Dump ship's entire track history